<<    November 2014    >>
Datum    Temp.       Tempmin      Tempmax    Taup.       Taup.min      Taup.max    Feuchte    Feuchtemin    Feuchtemax    Druck    Druckmin    Druckmax    Regen    Wind    Benmax  
  01.11.2014  14,3    10,9    06:02    20,0    15:04  11,9    10,2    07:13    14,5    15:02  86,0    68    13:53    96    04:09  1018,9    1017    14:01    1021    00:01  0,0  1,8  13,0  
  02.11.2014  14,0    11,2    01:56    18,0    14:13  11,8    10,3    01:56    13,1    14:10  87,2    69    14:16    95    02:29  1012,9    1006    23:45    1017    00:00  2,1  3,1  15,1  
  03.11.2014  14,3    11,3    06:29    16,9    12:20  11,0    9,3    15:04    13,1    02:37  81,3    65    15:04    94    00:00  1000,5    993    23:15    1007    00:00  0,0  4,7  20,9  
  04.11.2014  10,6    9,4    06:49    14,1    00:00  9,7    8,6    05:28    11,3    01:32  94,6    77    00:00    98    23:59  994,9    992    01:15    997    11:45  11,3  0,6  14,0  
  05.11.2014  9,5    6,5    23:55    11,9    13:08  8,7    5,9    23:59    10,6    13:20  94,5    85    14:23    98    00:00  1001,5    996    00:00    1007    22:29  0,9  0,1  7,6  
  06.11.2014  7,6    4,7    23:44    11,8    14:54  5,4    3,0    23:44    7,7    11:20  87,0    70    13:02    98    03:10  1010,3    1007    00:00    1013    19:44  0,0  1,5  10,4  
  07.11.2014  6,7    3,7    05:53    9,3    23:03  4,5    2,7    05:11    7,2    23:03  86,3    76    13:07    94    06:52  1006,9    1003    13:44    1011    00:00  0,0  4,4  21,6  
  08.11.2014  10,0    6,9    08:04    14,1    13:21  6,6    5,3    18:08    8,2    11:49  80,8    61    14:58    94    08:04  1010,3    1007    01:14    1012    08:29  0,0  2,9  15,1  
  09.11.2014  9,1    6,7    02:59    11,9    14:32  6,5    4,8    02:59    8,0    23:36  83,9    74    14:24    93    23:36  1008,3    1007    05:59    1010    00:00  0,9  2,2  15,1  
  10.11.2014  9,7    6,7    21:17    13,9    14:55  8,2    5,6    21:17    11,1    14:02  91,0    70    15:37    98    09:09  1010,3    1009    00:00    1011    23:59  2,1  1,5  13,0  
  11.11.2014  9,9    6,6    02:24    13,5    14:16  7,9    6,0    02:24    9,7    14:00  87,7    76    14:28    97    02:14  1006,7    1003    16:13    1011    00:00  0,0  3,0  15,5  
  12.11.2014  9,6    8,4    06:00    11,1    12:38  8,3    6,5    00:12    10,0    15:23  92,2    86    00:00    98    22:33  1004,6    1002    03:13    1009    21:58  0,9  1,8  13,7  
  13.11.2014  8,9    4,9    07:37    12,7    14:47  8,0    4,6    07:37    10,8    12:34  94,2    86    14:17    98    00:00  1011,9    1009    00:00    1014    10:42  0,0  1,2  16,6  
  14.11.2014  11,6    10,1    06:24    14,0    14:14  8,0    7,3    06:24    9,3    00:00  79,0    67    14:15    90    00:15  1007,8    1005    13:42    1012    00:00  0,0  4,2  19,4  
  15.11.2014  10,3    9,5    23:59    12,4    14:30  8,7    7,7    09:42    9,8    14:13  89,7    83    14:25    96    23:59  1002,5    1001    17:40    1005    00:00  0,0  1,6  16,2  
  16.11.2014  8,9    8,3    07:42    9,5    00:11  8,5    8,0    07:42    9,0    11:48  97,8    96    00:30    98    23:59  1001,2    999    14:41    1002    00:30  15,1  0,8  9,7  
  17.11.2014  9,3    7,7    21:29    12,0    15:10  8,2    7,0    19:20    9,5    11:45  93,2    82    15:13    98    00:00  1004,7    1001    00:00    1007    19:26  0,0  1,6  14,4  
  18.11.2014  9,3    8,5    23:39    10,5    12:28  7,9    7,4    19:48    8,6    12:28  91,3    86    13:07    96    06:37  1009,2    1007    00:00    1013    23:41  0,0  1,5  10,4  
  19.11.2014  8,3    4,5    23:59    10,1    14:11  6,4    3,8    23:59    7,6    03:15  88,4    80    13:57    95    22:57  1019,7    1013    00:00    1026    23:10  0,0  1,2  9,0  
  20.11.2014  4,9    2,5    04:36    8,3    13:43  3,8    1,8    23:59    6,6    13:43  93,0    84    15:31    98    07:17  1026,2    1025    00:00    1028    11:10  0,0  0,9  11,9  
  21.11.2014  5,2    0,4    07:39    9,6    14:24  2,9    -0,2    07:39    5,1    11:30  85,8    68    14:33    98    08:43  1022,1    1019    15:25    1026    00:00  0,0  2,0  19,4  
  22.11.2014  7,6    4,8    07:14    11,2    13:50  5,3    2,8    01:05    8,0    13:50  85,3    80    13:47    88    07:42  1018,9    1018    13:40    1020    00:00  0,0  3,2  17,6  
  23.11.2014  9,5    7,3    08:20    11,9    14:52  6,9    5,7    08:20    8,3    14:53  84,0    77    13:19    90    07:28  1017,9    1015    15:55    1020    00:40  0,0  4,1  16,9  
  24.11.2014  7,5    1,1    23:55    10,5    03:46  5,8    0,2    23:55    9,4    03:48  89,7    76    15:23    96    06:05  1023,5    1015    00:09    1027    18:39  1,8  1,5  14,0  
  25.11.2014  3,7    -1,1    08:15    8,9    15:02  1,2    -1,7    08:15    5,2    13:02  85,0    65    17:17    97    09:32  1024,3    1020    23:59    1027    00:00  0,0  1,4  13,7  
  26.11.2014  5,6    4,4    08:02    7,0    13:39  1,7    0,3    08:02    2,7    23:59  76,5    70    12:55    82    16:06  1016,2    1013    18:24    1020    00:00  0,0  4,9  22,7  
  27.11.2014  6,5    5,7    00:00    8,2    14:01  3,3    2,2    06:50    4,3    17:14  80,2    74    11:55    89    20:27  1009,6    1007    15:53    1014    00:00  1,2  4,5  16,9  
  28.11.2014  6,2    4,9    21:11    8,0    11:33  3,2    2,0    23:58    4,3    01:28  81,6    74    14:32    86    00:00  1010,2    1008    00:00    1014    22:23  0,0  5,0  19,8  
  29.11.2014  4,6    4,0    07:42    5,3    13:04  1,6    1,2    07:42    2,2    00:20  81,1    77    14:31    83    23:59  1015,3    1013    02:38    1017    12:53  0,0  5,9  19,1  
  30.11.2014  4,1    3,5    23:18    4,8    13:31  1,6    1,2    01:19    2,3    13:31  84,3    82    01:14    86    23:59  1013,3    1011    14:23    1015    00:00  0,0  3,2  14,0  
 
  Gesamt  8,6  -1,1            20,0            6,5  -1,7            14,5            87,1  61            98            1011,4  992            1028            36,2  2,6  22,7  
 
  Mittelwert  8,6  6,1            11,4            6,5  4,7            8,3            87,1  76,1            93,9            1011,4  1008,0            1014,4            1,2  2,6  15,2  
  Minimum  3,7  -1,1            4,8            1,2  -1,7            2,2            76,5  61,0            82,0            994,9  992,0            997,0            0,0  0,1  7,6  
  Maximum  14,3  11,3            20,0            11,9  10,3            14,5            97,8  96,0            98,0            1026,2  1025,0            1028,0            15,1  5,9  22,7  

  Heie Tage    Tmax >=30C     0  
  Sommertage    Tmax >=25C     0  
  Warme Tage    Tmax >=20C     1  
  Kalte Tage    Tmax  <10C     10  
  Frosttage    Tmin  <0C     1  
  Eistage    Tmax  <0C     0  
  Regentage > 0 mm    9  
  Regentage > 2 mm    4  
  Regentage > 10 mm    2  
  Regentage > 20 mm    0